Time;durP1;ratioP1;P1;durP2;ratioP2;P2;SDS_P1;SDS_P2;PMS_P1;PMS_P2;Temp;Humidity;BMP_temperature;BMP_pressure;BME280_temperature;BME280_humidity;BME280_pressure;Samples;Min_cycle;Max_cycle;Signal;HPM_P1;HPM_P2
2021/06/06 00:00:55;;;;;;;3.90;3.52;;;;;;;7.82;95.10;93350.58;1843903;77;21477;-76
2021/06/06 00:03:31;;;;;;;3.90;3.60;;;;;;;7.79;95.34;93351.36;1838667;78;20983;-75
2021/06/06 00:06:14;;;;;;;3.80;3.42;;;;;;;7.76;94.75;93354.23;1842576;77;21041;-76
2021/06/06 00:08:41;;;;;;;5.67;3.25;;;;;;;7.67;94.49;93354.36;1842386;77;21815;-77
2021/06/06 00:11:16;;;;;;;3.70;3.40;;;;;;;7.63;94.88;93351.62;1842311;77;21002;-76
2021/06/06 00:13:43;;;;;;;3.55;3.25;;;;;;;7.69;94.95;93350.70;1841706;77;21480;-77
2021/06/06 00:16:16;;;;;;;4.85;3.95;;;;;;;7.76;94.98;93356.17;1842769;77;20994;-77
2021/06/06 00:18:46;;;;;;;3.60;3.35;;;;;;;7.82;94.86;93353.28;1837961;78;21524;-77
2021/06/06 00:21:13;;;;;;;5.05;3.55;;;;;;;7.92;94.57;93358.56;1843405;77;21106;-74
2021/06/06 00:23:40;;;;;;;4.30;3.90;;;;;;;7.92;94.04;93350.44;1843713;77;21016;-76
2021/06/06 00:26:06;;;;;;;3.80;3.37;;;;;;;7.82;94.13;93354.64;1844330;77;21034;-76
2021/06/06 00:28:33;;;;;;;3.65;3.35;;;;;;;7.72;94.72;93352.66;1845362;77;21080;-74
2021/06/06 00:31:01;;;;;;;4.15;3.55;;;;;;;7.67;95.14;93353.80;1842985;77;21623;-76
2021/06/06 00:33:28;;;;;;;5.33;3.65;;;;;;;7.61;95.48;93349.13;1812577;78;21615;-76
2021/06/06 00:35:56;;;;;;;6.70;3.40;;;;;;;7.58;96.10;93343.88;1841476;77;21056;-76
2021/06/06 00:38:23;;;;;;;3.70;3.40;;;;;;;7.66;96.38;93345.47;1841493;77;21088;-75
2021/06/06 00:40:52;;;;;;;4.10;3.50;;;;;;;7.73;95.45;93347.44;1839263;77;21600;-76
2021/06/06 00:43:19;;;;;;;4.70;3.30;;;;;;;7.68;94.50;93345.11;1843703;77;21074;-77
2021/06/06 00:45:46;;;;;;;4.53;3.52;;;;;;;7.58;94.15;93344.45;1814976;77;21273;-76
2021/06/06 00:48:14;;;;;;;4.08;3.55;;;;;;;7.47;94.27;93339.75;1837040;77;21709;-76
2021/06/06 00:50:44;;;;;;;4.60;3.77;;;;;;;7.40;94.55;93344.34;1841652;77;21053;-75
2021/06/06 00:53:37;;;;;;;3.45;3.15;;;;;;;7.37;94.92;93343.73;1840452;77;21057;-77
2021/06/06 00:56:05;;;;;;;3.83;3.20;;;;;;;7.37;95.22;93341.02;1840094;77;21070;-76
2021/06/06 00:58:32;;;;;;;3.87;3.08;;;;;;;7.38;95.74;93345.30;1815811;77;21772;-75
2021/06/06 01:00:59;;;;;;;3.62;3.20;;;;;;;7.39;95.79;93341.44;1843733;77;20982;-76
2021/06/06 01:03:27;;;;;;;4.22;3.87;;;;;;;7.33;95.93;93345.64;1812522;78;21081;-78
2021/06/06 01:06:01;;;;;;;4.58;3.60;;;;;;;7.29;96.40;93342.33;1840767;77;21042;-75
2021/06/06 01:08:35;;;;;;;4.62;3.58;;;;;;;7.30;96.86;93341.20;1842981;77;21928;-78
2021/06/06 01:11:15;;;;;;;4.12;3.08;;;;;;;7.34;97.17;93345.28;1841695;77;21062;-78
2021/06/06 01:13:59;;;;;;;5.00;3.85;;;;;;;7.35;97.15;93346.82;1836598;77;21548;-76
2021/06/06 01:16:42;;;;;;;4.12;3.72;;;;;;;7.38;96.97;93348.01;1839503;77;21080;-77
2021/06/06 01:22:04;;;;;;;3.87;3.58;;;;;;;7.38;96.73;93342.59;1821388;78;21554;-78
2021/06/06 01:24:40;;;;;;;3.35;3.05;;;;;;;7.34;97.02;93338.52;1856538;77;21067;-77
2021/06/06 01:27:17;;;;;;;4.33;3.92;;;;;;;7.36;97.44;93334.07;1845156;77;21069;-78
2021/06/06 01:30:02;;;;;;;3.52;3.25;;;;;;;7.42;97.06;93339.34;1846494;77;21610;-78
2021/06/06 01:32:44;;;;;;;3.42;3.15;;;;;;;7.44;96.47;93339.72;1827005;77;21061;-75
2021/06/06 01:35:25;;;;;;;3.75;2.90;;;;;;;7.39;96.00;93340.86;1828297;77;21037;-75
2021/06/06 01:38:04;;;;;;;3.52;3.22;;;;;;;7.37;96.35;93338.32;1846220;77;21093;-79
2021/06/06 01:40:33;;;;;;;3.98;3.12;;;;;;;7.39;96.32;93329.27;1840671;77;21516;-79
2021/06/06 01:43:03;;;;;;;3.22;2.98;;;;;;;7.42;96.15;93335.28;1783957;80;22082;-76
2021/06/06 01:45:46;;;;;;;5.85;3.20;;;;;;;7.40;95.64;93338.92;1763197;80;21050;-79
2021/06/06 01:48:14;;;;;;;5.15;3.37;;;;;;;7.30;95.68;93337.14;1808822;78;21069;-78
2021/06/06 01:50:56;;;;;;;3.85;3.55;;;;;;;7.25;96.22;93340.17;1855287;77;22105;-77
2021/06/06 01:53:23;;;;;;;4.72;3.22;;;;;;;7.31;96.45;93329.80;1854335;76;21029;-75
2021/06/06 01:55:55;;;;;;;3.90;3.12;;;;;;;7.37;95.93;93331.00;1835523;77;21034;-77
2021/06/06 01:58:22;;;;;;;4.10;3.12;;;;;;;7.38;95.69;93327.72;1838982;77;20943;-76
2021/06/06 02:01:00;;;;;;;3.33;3.02;;;;;;;7.40;95.64;93334.28;1846597;77;21042;-77
2021/06/06 02:03:29;;;;;;;4.65;3.17;;;;;;;7.39;95.18;93331.39;1765070;77;22127;-75
2021/06/06 02:05:57;;;;;;;5.80;3.47;;;;;;;7.29;95.15;93328.03;1784614;79;20995;-75
2021/06/06 02:08:29;;;;;;;2.65;2.45;;;;;;;7.24;95.36;93330.52;1797541;79;21006;-76
2021/06/06 02:11:11;;;;;;;3.37;3.08;;;;;;;7.20;95.69;93329.72;1781638;79;21046;-75
2021/06/06 02:13:50;;;;;;;4.10;2.95;;;;;;;7.15;95.88;93334.13;1780809;79;21117;-77
2021/06/06 02:16:23;;;;;;;4.30;2.72;;;;;;;7.14;96.09;93330.44;1776575;80;21465;-75
2021/06/06 02:18:52;;;;;;;4.87;3.20;;;;;;;7.15;96.10;93332.78;1775368;80;21286;-77
2021/06/06 02:21:21;;;;;;;3.72;3.42;;;;;;;7.12;95.79;93330.82;1775115;80;21583;-77
2021/06/06 02:23:48;;;;;;;8.33;2.70;;;;;;;7.12;96.02;93332.17;1775485;80;21026;-76
2021/06/06 02:26:42;;;;;;;3.12;2.83;;;;;;;7.17;95.92;93338.58;1774704;80;21563;-77
2021/06/06 02:29:14;;;;;;;;;;;;;;;7.17;95.64;93331.04;1777872;80;21777;-77
2021/06/06 02:32:06;;;;;;;4.95;3.35;;;;;;;7.13;95.61;93326.19;1775020;79;20199;-77
2021/06/06 02:34:40;;;;;;;4.95;2.58;;;;;;;7.05;95.40;93327.48;1775562;79;21454;-74
2021/06/06 02:37:17;;;;;;;7.78;3.08;;;;;;;6.99;95.65;93330.31;1754268;80;21083;-76
2021/06/06 02:39:48;;;;;;;3.17;2.85;;;;;;;6.93;95.88;93329.13;1829086;78;21038;-79
2021/06/06 02:42:21;;;;;;;6.45;3.47;;;;;;;6.91;96.21;93331.41;1806443;77;21914;-77
2021/06/06 02:44:54;;;;;;;3.67;3.37;;;;;;;6.90;96.48;93331.80;1829289;77;21617;-77
2021/06/06 02:47:25;;;;;;;4.92;3.33;;;;;;;6.88;96.81;93334.08;1795746;79;21402;-78
2021/06/06 02:49:55;;;;;;;3.30;2.75;;;;;;;6.86;96.90;93334.47;1750785;77;21038;-78
2021/06/06 02:52:38;;;;;;;2.72;2.52;;;;;;;6.83;97.04;93331.16;1849794;77;21072;-78
2021/06/06 02:54:58;;;;;;;4.03;3.25;;;;;;;6.85;97.08;93334.85;1852116;77;21268;-77
2021/06/06 02:57:29;;;;;;;5.70;5.08;;;;;;;6.83;97.01;93336.56;1827519;77;21035;-77
2021/06/06 03:00:17;;;;;;;5.90;3.62;;;;;;;6.81;97.30;93337.52;1825387;78;20991;-75
2021/06/06 03:02:50;;;;;;;3.10;2.77;;;;;;;6.87;97.70;93339.30;1826882;78;21019;-77
2021/06/06 03:05:20;;;;;;;2.77;2.58;;;;;;;6.93;96.94;93344.57;1822587;78;21043;-76
2021/06/06 03:07:50;;;;;;;3.33;3.02;;;;;;;6.88;96.54;93344.89;1830033;78;21015;-76
2021/06/06 03:10:20;;;;;;;3.83;3.35;;;;;;;6.81;96.53;93346.98;1767325;80;21066;-77
2021/06/06 03:12:49;;;;;;;6.87;2.95;;;;;;;6.77;96.60;93348.30;1822740;77;21061;-76
2021/06/06 03:15:17;;;;;;;3.42;2.33;;;;;;;6.75;96.69;93347.11;1822580;77;21038;-75
2021/06/06 03:17:47;;;;;;;3.87;2.87;;;;;;;6.74;96.92;93352.32;1847515;77;21033;-76
2021/06/06 03:20:22;;;;;;;3.47;3.17;;;;;;;6.69;96.69;93356.11;1826827;77;21132;-77
2021/06/06 03:22:49;;;;;;;6.37;2.65;;;;;;;6.64;96.83;93354.34;1801461;77;21061;-76
2021/06/06 03:28:31;;;;;;;2.90;2.50;;;;;;;6.67;97.07;93349.55;1862210;77;20994;-76
2021/06/06 03:31:06;;;;;;;4.90;2.72;;;;;;;6.68;97.25;93349.16;1803874;77;21089;-77
2021/06/06 03:33:55;;;;;;;5.00;3.00;;;;;;;6.68;97.37;93344.34;1832035;77;21417;-75
2021/06/06 03:36:33;;;;;;;3.45;3.15;;;;;;;6.69;97.51;93346.66;1842951;77;21034;-76
2021/06/06 03:39:00;;;;;;;3.33;2.65;;;;;;;6.70;97.48;93342.83;1839943;77;21474;-75
2021/06/06 03:41:27;;;;;;;3.98;3.02;;;;;;;6.73;97.36;93348.84;1812424;78;21010;-78
2021/06/06 03:43:54;;;;;;;10.98;2.67;;;;;;;6.71;97.22;93347.66;1837361;78;21334;-76
2021/06/06 03:46:26;;;;;;;6.87;3.10;;;;;;;6.71;97.27;93344.95;1795644;78;21129;-76
2021/06/06 03:48:55;;;;;;;3.05;2.80;;;;;;;6.68;97.60;93341.05;1801201;79;20987;-77
2021/06/06 03:51:22;;;;;;;2.83;2.58;;;;;;;6.74;97.98;93344.98;1796330;79;21014;-76
2021/06/06 03:53:51;;;;;;;3.30;2.83;;;;;;;6.85;98.00;93339.68;1819574;77;21068;-77
2021/06/06 03:56:18;;;;;;;5.92;2.50;;;;;;;6.90;97.73;93335.85;1841349;77;20947;-75
2021/06/06 03:58:45;;;;;;;4.08;3.00;;;;;;;6.95;97.84;93332.80;1784494;78;21663;-75
2021/06/06 04:01:12;;;;;;;2.60;2.40;;;;;;;7.04;98.26;93335.39;1797435;78;21363;-76
2021/06/06 04:03:39;;;;;;;6.28;3.17;;;;;;;7.15;98.06;93332.78;1810093;79;21401;-76
2021/06/06 04:06:07;;;;;;;3.00;2.80;;;;;;;7.26;97.84;93336.91;1809866;79;21025;-78
2021/06/06 04:08:38;;;;;;;3.45;2.85;;;;;;;7.33;97.67;93338.87;1784542;77;21565;-77
2021/06/06 04:11:06;;;;;;;3.87;3.20;;;;;;;7.42;97.59;93332.58;1848374;77;21535;-78
2021/06/06 04:13:35;;;;;;;8.40;3.50;;;;;;;7.48;97.47;93338.59;1842556;77;21090;-76
2021/06/06 04:16:05;;;;;;;3.60;3.30;;;;;;;7.57;97.37;93333.44;1850164;77;21072;-78
2021/06/06 04:18:33;;;;;;;4.75;3.65;;;;;;;7.66;97.11;93337.93;1848269;77;21018;-78
2021/06/06 04:21:05;;;;;;;5.65;3.80;;;;;;;7.80;97.24;93328.54;1848229;77;21551;-79
2021/06/06 04:23:32;;;;;;;3.80;3.50;;;;;;;7.93;97.40;93331.09;1851750;77;21646;-78
2021/06/06 04:26:00;;;;;;;5.17;3.55;;;;;;;8.03;97.24;93327.67;1846147;77;21151;-78
2021/06/06 04:28:28;;;;;;;4.22;3.35;;;;;;;8.13;97.17;93324.05;1756943;78;21554;-77
2021/06/06 04:30:56;;;;;;;3.50;3.20;;;;;;;8.23;97.29;93324.06;1818577;78;21034;-78
2021/06/06 04:33:23;;;;;;;3.65;3.35;;;;;;;8.35;97.13;93325.67;1835807;77;21041;-78
2021/06/06 04:35:51;;;;;;;4.22;3.80;;;;;;;8.41;96.84;93330.16;1838813;77;21059;-76
2021/06/06 04:38:21;;;;;;;4.42;4.00;;;;;;;8.44;96.31;93331.52;1776333;80;21569;-80
2021/06/06 04:40:49;;;;;;;3.92;3.62;;;;;;;8.46;96.19;93330.57;1807083;79;21265;-77
2021/06/06 04:43:20;;;;;;;4.12;3.77;;;;;;;8.49;95.99;93333.84;1780991;79;20954;-77
2021/06/06 04:45:49;;;;;;;3.85;3.55;;;;;;;8.54;95.88;93343.55;1749365;80;21054;-77
2021/06/06 04:48:29;;;;;;;5.00;4.50;;;;;;;8.57;95.64;93341.99;1787354;79;21130;-78
2021/06/06 04:50:57;;;;;;;5.28;4.50;;;;;;;8.58;95.45;93340.86;1817805;77;20998;-76
2021/06/06 04:53:27;;;;;;;8.68;3.70;;;;;;;8.63;95.70;93341.83;1854489;77;21390;-77
2021/06/06 04:55:56;;;;;;;3.35;3.05;;;;;;;8.69;95.58;93334.88;1776985;80;21525;-76
2021/06/06 04:58:27;;;;;;;5.35;4.83;;;;;;;8.74;95.27;93333.13;1802588;79;21034;-77
2021/06/06 05:00:54;;;;;;;4.67;4.28;;;;;;;8.79;95.43;93323.84;1789117;79;22153;-77
2021/06/06 05:03:21;;;;;;;4.58;4.12;;;;;;;8.87;95.88;93330.81;1775299;80;21034;-77
2021/06/06 05:05:49;;;;;;;4.17;3.77;;;;;;;8.95;95.65;93323.67;1771846;80;21240;-78
2021/06/06 05:08:22;;;;;;;4.10;3.70;;;;;;;9.03;95.11;93323.66;1773236;80;21026;-78
2021/06/06 05:10:49;;;;;;;4.53;4.08;;;;;;;9.02;94.62;93326.17;1773772;80;21038;-77
2021/06/06 05:13:15;;;;;;;4.17;3.65;;;;;;;8.99;94.78;93325.80;1820213;77;21178;-77
2021/06/06 05:15:44;;;;;;;4.50;3.70;;;;;;;9.07;94.86;93327.94;1830931;76;21097;-77
2021/06/06 05:18:11;;;;;;;3.25;3.05;;;;;;;9.18;94.55;93327.94;1799210;79;21570;-78
2021/06/06 05:20:45;;;;;;;2.83;2.60;;;;;;;9.29;94.17;93329.27;1774767;80;21082;-80
2021/06/06 05:23:13;;;;;;;4.08;3.47;;;;;;;9.37;94.00;93328.12;1775049;80;21038;-78
2021/06/06 05:25:42;;;;;;;4.50;4.05;;;;;;;9.43;93.70;93331.98;1774441;80;21065;-77
2021/06/06 05:28:12;;;;;;;4.87;4.40;;;;;;;9.45;93.64;93324.23;1775578;80;21011;-78
2021/06/06 05:30:39;;;;;;;4.58;4.20;;;;;;;9.51;93.66;93322.66;1773992;80;21455;-79
2021/06/06 05:33:06;;;;;;;5.65;5.12;;;;;;;9.61;93.54;93322.45;1772718;80;21050;-78
2021/06/06 05:35:33;;;;;;;5.83;5.03;;;;;;;9.70;93.34;93325.53;1773679;80;21555;-78
2021/06/06 05:38:02;;;;;;;4.47;3.80;;;;;;;9.81;93.17;93324.16;1774535;80;21094;-79
2021/06/06 05:40:29;;;;;;;4.45;4.05;;;;;;;9.91;93.35;93318.70;1774186;80;21817;-78
2021/06/06 05:42:56;;;;;;;5.00;4.37;;;;;;;9.95;92.98;93328.19;1773651;80;21014;-79
2021/06/06 05:45:23;;;;;;;6.37;4.47;;;;;;;9.99;93.06;93326.23;1774463;80;21054;-78
2021/06/06 05:47:50;;;;;;;5.72;5.12;;;;;;;9.99;92.23;93333.03;1775459;80;21054;-78
2021/06/06 05:50:23;;;;;;;4.58;4.15;;;;;;;10.03;92.41;93327.58;1774795;80;21062;-78
2021/06/06 05:52:52;;;;;;;5.75;4.60;;;;;;;10.10;92.36;93322.13;1772887;80;21053;-78
2021/06/06 05:55:20;;;;;;;5.87;5.03;;;;;;;10.18;91.79;93323.05;1775502;80;21105;-77
2021/06/06 05:57:48;;;;;;;6.40;5.47;;;;;;;10.26;91.67;93322.47;1772647;80;21045;-80
2021/06/06 06:00:20;;;;;;;8.28;6.30;;;;;;;10.32;91.51;93329.05;1748390;80;21085;-78
2021/06/06 06:02:46;;;;;;;6.55;4.72;;;;;;;10.47;91.62;93317.53;1775313;80;21108;-77
2021/06/06 06:05:13;;;;;;;7.65;4.92;;;;;;;10.90;92.76;93322.70;1773314;80;21176;-78
2021/06/06 06:07:39;;;;;;;6.40;4.62;;;;;;;11.28;90.41;93318.14;1773997;78;21227;-81
2021/06/06 06:10:13;;;;;;;7.47;5.25;;;;;;;11.62;89.74;93316.89;1774622;80;21034;-79
2021/06/06 06:12:41;;;;;;;7.42;5.28;;;;;;;12.03;88.52;93311.23;1774109;80;21037;-79
2021/06/06 06:15:09;;;;;;;5.58;4.92;;;;;;;12.46;87.49;93308.77;1774560;80;21121;-78
2021/06/06 06:17:37;;;;;;;7.37;4.53;;;;;;;12.85;84.45;93319.14;1776008;80;21507;-80
2021/06/06 06:20:07;;;;;;;5.25;4.75;;;;;;;13.16;83.40;93314.98;1775205;80;21131;-79
2021/06/06 06:22:35;;;;;;;6.95;5.83;;;;;;;13.44;82.24;93311.07;1775446;80;21070;-79
2021/06/06 06:25:06;;;;;;;5.53;5.03;;;;;;;13.66;80.54;93310.13;1774163;80;21022;-80
2021/06/06 06:27:33;;;;;;;6.15;5.55;;;;;;;13.87;79.20;93311.69;1773277;80;21104;-79
2021/06/06 06:30:12;;;;;;;5.97;4.87;;;;;;;14.02;77.72;93308.86;1773719;80;21070;-79
2021/06/06 06:32:40;;;;;;;4.78;4.33;;;;;;;14.16;77.09;93314.67;1774213;80;21050;-77
2021/06/06 06:35:08;;;;;;;6.08;5.45;;;;;;;14.30;76.84;93305.42;1774918;80;21050;-78
2021/06/06 06:37:35;;;;;;;6.05;4.67;;;;;;;14.40;76.64;93309.13;1775328;80;21037;-78
2021/06/06 06:40:07;;;;;;;5.35;4.85;;;;;;;14.55;76.03;93306.30;1749677;80;21237;-82
2021/06/06 06:42:34;;;;;;;6.67;5.55;;;;;;;14.66;74.54;93310.18;1788853;77;20946;-81
2021/06/06 06:45:02;;;;;;;6.12;5.53;;;;;;;14.68;74.25;93305.84;1856185;77;20938;-77
2021/06/06 06:47:30;;;;;;;7.28;5.28;;;;;;;14.67;73.61;93312.52;1776647;80;21654;-78
2021/06/06 06:49:57;;;;;;;6.83;5.60;;;;;;;14.66;74.50;93309.58;1765460;80;21117;-77
2021/06/06 06:52:25;;;;;;;6.75;5.53;;;;;;;14.71;73.66;93295.41;1781726;79;21571;-77
2021/06/06 06:54:52;;;;;;;6.50;5.78;;;;;;;14.83;74.57;93295.95;1788184;79;21022;-79
2021/06/06 06:57:19;;;;;;;7.12;6.10;;;;;;;14.92;73.87;93292.02;1776574;79;21465;-78
2021/06/06 06:59:46;;;;;;;8.40;6.08;;;;;;;14.92;73.30;93292.02;1807323;79;21061;-78
2021/06/06 07:02:13;;;;;;;5.50;4.90;;;;;;;14.90;73.79;93284.25;1844853;77;21201;-78
2021/06/06 07:04:39;;;;;;;6.30;4.97;;;;;;;14.97;73.79;93287.40;1807542;77;21095;-80
2021/06/06 07:07:06;;;;;;;7.47;5.60;;;;;;;14.99;72.31;93283.65;1774055;80;21053;-79
2021/06/06 07:09:33;;;;;;;4.17;3.80;;;;;;;15.01;72.39;93285.37;1773274;80;21125;-77
2021/06/06 07:12:00;;;;;;;5.25;3.95;;;;;;;15.03;69.76;93278.86;1775058;80;21030;-79
2021/06/06 07:14:28;;;;;;;4.92;4.53;;;;;;;15.05;69.75;93282.72;1773151;80;21046;-76
2021/06/06 07:16:54;;;;;;;6.03;4.67;;;;;;;15.11;70.02;93284.94;1772715;80;21109;-77
2021/06/06 07:19:22;;;;;;;5.58;3.92;;;;;;;15.19;69.39;93292.55;1772559;80;21037;-79
2021/06/06 07:21:49;;;;;;;9.13;7.17;;;;;;;15.28;69.59;93287.27;1773593;80;21304;-77
2021/06/06 07:24:15;;;;;;;4.95;3.90;;;;;;;15.34;66.45;93286.74;1773678;80;21069;-77
2021/06/06 07:26:46;;;;;;;5.17;4.00;;;;;;;15.42;64.45;93288.91;1774821;80;21070;-78
2021/06/06 07:29:19;;;;;;;4.95;4.30;;;;;;;15.60;65.28;93282.19;1774132;80;21090;-77
2021/06/06 07:31:48;;;;;;;4.90;3.10;;;;;;;15.84;64.42;93280.83;1747988;80;21046;-78
2021/06/06 07:34:15;;;;;;;5.30;3.42;;;;;;;16.16;63.79;93280.55;1775479;78;20972;-78
2021/06/06 07:36:44;;;;;;;4.97;3.30;;;;;;;16.48;60.15;93280.44;1773684;80;21738;-78
2021/06/06 07:39:11;;;;;;;5.50;3.83;;;;;;;16.74;60.25;93277.16;1774276;80;21054;-79
2021/06/06 07:41:38;;;;;;;4.90;3.92;;;;;;;16.96;59.87;93272.38;1774206;80;21590;-79
2021/06/06 07:44:06;;;;;;;3.42;3.17;;;;;;;17.12;59.13;93263.28;1775324;80;21025;-76
2021/06/06 07:46:32;;;;;;;3.65;3.35;;;;;;;17.21;60.23;93274.36;1773617;80;21113;-79
2021/06/06 07:48:59;;;;;;;4.78;3.50;;;;;;;17.26;57.82;93272.42;1774615;78;21070;-79
2021/06/06 07:51:26;;;;;;;5.37;3.52;;;;;;;17.28;58.54;93274.75;1775457;79;21548;-80
2021/06/06 07:53:54;;;;;;;7.62;3.12;;;;;;;17.29;56.84;93277.05;1773958;80;21327;-79
2021/06/06 07:56:22;;;;;;;3.10;2.90;;;;;;;17.30;56.96;93283.30;1775131;80;21026;-79
2021/06/06 07:58:50;;;;;;;4.53;2.67;;;;;;;17.36;57.89;93273.31;1775235;80;21675;-78
2021/06/06 08:01:16;;;;;;;4.47;3.20;;;;;;;17.42;58.95;93272.31;1773397;80;21042;-77
2021/06/06 08:03:43;;;;;;;4.12;2.87;;;;;;;17.46;58.77;93273.58;1774641;80;21050;-81
2021/06/06 08:06:11;;;;;;;6.70;3.75;;;;;;;17.41;57.27;93285.11;1775490;80;21069;-78
2021/06/06 08:08:38;;;;;;;3.62;3.33;;;;;;;17.24;56.82;93286.62;1774803;80;21038;-79
2021/06/06 08:11:07;;;;;;;4.08;2.90;;;;;;;17.07;55.32;93281.67;1775043;80;21429;-76
2021/06/06 08:13:34;;;;;;;3.77;2.80;;;;;;;16.90;55.66;93288.66;1774364;80;21073;-77
2021/06/06 08:16:05;;;;;;;3.05;2.75;;;;;;;16.82;56.10;93290.08;1773329;80;21034;-75
2021/06/06 08:18:33;;;;;;;3.70;3.20;;;;;;;16.79;56.83;93284.08;1775013;80;21895;-77
2021/06/06 08:21:10;;;;;;;3.15;2.90;;;;;;;16.72;55.67;93280.14;1826039;78;21084;-77
2021/06/06 08:23:36;;;;;;;5.28;3.20;;;;;;;16.62;56.05;93283.96;1844043;77;21010;-76
2021/06/06 08:26:04;;;;;;;5.55;3.85;;;;;;;16.58;57.62;93282.69;1848359;77;20930;-75
2021/06/06 08:28:30;;;;;;;4.33;2.90;;;;;;;16.51;55.47;93280.94;1845975;77;21005;-76
2021/06/06 08:31:05;;;;;;;4.72;3.47;;;;;;;16.35;56.96;93287.85;1841527;77;22380;-79
2021/06/06 08:33:32;;;;;;;5.95;3.33;;;;;;;16.19;57.65;93285.95;1841457;77;21009;-77
2021/06/06 08:36:15;;;;;;;5.90;3.37;;;;;;;16.10;59.23;93288.56;1844522;77;21057;-79
2021/06/06 08:38:43;;;;;;;3.47;3.17;;;;;;;16.05;59.93;93297.91;1839150;77;20931;-76
2021/06/06 08:41:39;;;;;;;3.35;3.05;;;;;;;15.98;60.08;93292.80;1842171;77;20994;-78
2021/06/06 08:44:11;;;;;;;;;;;;;;;15.91;59.59;93290.81;1844187;77;21137;-77
2021/06/06 08:46:52;;;;;;;5.67;3.77;;;;;;;15.78;59.72;93294.27;1840007;77;20194;-77
2021/06/06 08:49:18;;;;;;;5.72;3.22;;;;;;;15.68;59.93;93292.59;1814486;77;21100;-75
2021/06/06 08:52:13;;;;;;;5.67;4.03;;;;;;;15.65;60.01;93294.02;1776473;78;21539;-77
2021/06/06 08:57:19;;;;;;;4.55;3.80;;;;;;;15.79;61.09;93286.81;1750927;80;21203;-78
2021/06/06 08:59:54;;;;;;;5.50;3.27;;;;;;;15.94;60.12;93278.98;1790814;78;21856;-78
2021/06/06 09:02:36;;;;;;;3.25;2.92;;;;;;;16.00;59.22;93281.38;1767619;80;21619;-77
2021/06/06 09:05:08;;;;;;;3.83;3.00;;;;;;;16.02;59.24;93285.81;1801082;78;21049;-76
2021/06/06 09:07:43;;;;;;;4.10;3.25;;;;;;;16.01;57.75;93283.67;1764181;80;21082;-78
2021/06/06 09:10:17;;;;;;;6.00;3.20;;;;;;;16.00;58.10;93287.63;1765431;78;22851;-79
2021/06/06 09:12:44;;;;;;;3.87;3.47;;;;;;;16.06;57.85;93287.09;1843030;77;20935;-81
2021/06/06 09:15:13;;;;;;;3.58;3.20;;;;;;;16.16;57.85;93278.58;1843743;77;20950;-78
2021/06/06 09:17:45;;;;;;;8.65;3.47;;;;;;;16.31;57.78;93272.70;1868882;76;21501;-77
2021/06/06 09:20:28;;;;;;;9.13;3.70;;;;;;;16.50;60.40;93268.41;1837374;76;20898;-79
2021/06/06 09:23:27;;;;;;;4.28;2.83;;;;;;;16.77;60.16;93274.12;1826075;77;21674;-78
2021/06/06 09:26:09;;;;;;;3.10;2.70;;;;;;;17.02;55.95;93269.27;1844726;77;21105;-77
2021/06/06 09:28:43;;;;;;;2.72;2.52;;;;;;;17.20;54.61;93268.11;1840377;77;21085;-76
2021/06/06 09:31:14;;;;;;;;;;;;;;;17.35;54.51;93260.17;1833780;77;21050;-76
2021/06/06 09:33:58;;;;;;;;;;;;;;;;;;;;;
2021/06/06 09:36:39;;;;;;;5.12;3.87;;;;;;;17.55;52.70;93270.91;1836938;78;21160;-77
2021/06/06 09:39:20;;;;;;;5.25;3.20;;;;;;;17.43;51.82;93278.58;1837321;77;20944;-80
2021/06/06 09:41:59;;;;;;;3.83;3.52;;;;;;;17.26;52.93;93269.68;1837139;78;21211;-76
2021/06/06 09:44:31;;;;;;;5.78;4.37;;;;;;;17.11;52.90;93268.02;1840346;77;21381;-78
2021/06/06 09:47:10;;;;;;;4.60;3.70;;;;;;;17.01;54.56;93280.70;1845282;77;21080;-82
2021/06/06 09:49:46;;;;;;;9.68;3.60;;;;;;;16.99;54.32;93277.77;1844910;77;21468;-78
2021/06/06 09:52:40;;;;;;;3.65;3.22;;;;;;;17.06;54.90;93279.53;1842404;77;21048;-76
2021/06/06 09:54:58;;;;;;;6.62;2.80;;;;;;;17.12;54.04;93271.52;1842260;77;21555;-77
2021/06/06 09:57:35;;;;;;;6.33;3.80;;;;;;;17.11;54.01;93269.39;1844058;77;21076;-80
2021/06/06 10:00:22;;;;;;;4.90;4.05;;;;;;;17.10;54.41;93268.44;1838902;77;21308;-77
2021/06/06 10:02:52;;;;;;;6.90;4.00;;;;;;;17.05;54.09;93269.00;1842011;77;21572;-78
2021/06/06 10:05:38;;;;;;;6.65;3.60;;;;;;;16.98;53.72;93272.12;1842697;77;21002;-78
2021/06/06 10:08:09;;;;;;;5.60;3.50;;;;;;;16.98;54.57;93275.47;1837028;78;21080;-77
2021/06/06 10:10:43;;;;;;;8.95;4.00;;;;;;;17.01;54.84;93280.09;1835890;77;21209;-78
2021/06/06 10:15:51;;;;;;;7.95;4.90;;;;;;;17.07;53.43;93281.67;1853266;77;21023;-75
2021/06/06 10:18:32;;;;;;;5.83;4.67;;;;;;;17.05;52.81;93278.00;1821599;77;21081;-76
2021/06/06 10:21:17;;;;;;;7.60;4.90;;;;;;;17.05;53.22;93279.37;1769719;78;21041;-79
2021/06/06 10:23:50;;;;;;;5.50;4.33;;;;;;;17.01;53.94;93280.09;1778869;80;21034;-76
2021/06/06 10:26:57;;;;;;;7.75;3.87;;;;;;;17.05;54.01;93276.63;1775178;79;21046;-78
2021/06/06 10:29:49;;;;;;;6.87;3.00;;;;;;;17.08;54.97;93271.63;1816321;77;21095;-79
2021/06/06 10:32:27;;;;;;;7.47;3.75;;;;;;;17.07;54.95;93267.94;1837874;77;21313;-77
2021/06/06 10:35:18;;;;;;;4.37;3.55;;;;;;;17.01;55.26;93269.11;1831028;77;21595;-80
2021/06/06 10:37:47;;;;;;;5.28;3.08;;;;;;;16.91;55.75;93272.33;1763436;77;21152;-76
2021/06/06 10:43:09;;;;;;;3.62;3.20;;;;;;;16.72;56.37;93278.16;1829000;76;21106;-78
2021/06/06 10:45:52;;;;;;;4.42;2.87;;;;;;;16.64;56.51;93270.58;1782880;76;21043;-80
2021/06/06 10:48:28;;;;;;;6.20;2.87;;;;;;;16.56;57.44;93270.63;1779857;80;21040;-77
2021/06/06 10:51:11;;;;;;;2.60;2.40;;;;;;;16.53;56.94;93274.24;1773324;79;21349;-78
2021/06/06 10:53:38;;;;;;;4.72;2.62;;;;;;;16.52;57.46;93276.22;1782207;77;21417;-79
2021/06/06 10:56:14;;;;;;;3.00;2.80;;;;;;;16.55;58.35;93275.93;1849132;77;21707;-78
2021/06/06 10:59:03;;;;;;;7.58;2.92;;;;;;;16.56;58.31;93270.63;1815206;77;20990;-80
2021/06/06 11:01:52;;;;;;;3.65;2.60;;;;;;;16.64;60.48;93268.60;1809629;76;21010;-78
2021/06/06 11:10:06;;;;;;;3.20;2.92;;;;;;;17.13;58.75;93246.34;1834003;77;21187;-77
2021/06/06 11:12:37;;;;;;;9.85;4.75;;;;;;;17.21;55.45;93249.03;1812001;78;21081;-77
2021/06/06 11:15:31;;;;;;;6.17;4.30;;;;;;;17.24;56.56;93252.88;1777217;79;21051;-78
2021/06/06 11:18:20;;;;;;;3.87;3.08;;;;;;;17.28;56.54;93249.41;1815323;77;21344;-77
2021/06/06 11:21:04;;;;;;;4.37;3.62;;;;;;;17.32;54.36;93256.94;1852051;77;21106;-78
2021/06/06 11:23:49;;;;;;;8.33;4.30;;;;;;;17.40;55.00;93254.72;1857870;77;21057;-77
2021/06/06 11:26:38;;;;;;;3.08;2.87;;;;;;;17.40;55.01;93257.47;1860662;77;21886;-79
2021/06/06 11:29:18;;;;;;;4.83;3.45;;;;;;;17.43;55.12;93249.72;1861546;77;21013;-78
2021/06/06 11:32:16;;;;;;;2.83;2.60;;;;;;;17.44;54.94;93245.75;1858401;77;37740;-78
2021/06/06 11:34:49;;;;;;;4.50;3.25;;;;;;;17.49;55.38;93241.09;1857826;77;21038;-78
2021/06/06 11:37:39;;;;;;;4.70;2.75;;;;;;;17.63;52.88;93237.08;1839025;77;21108;-80
2021/06/06 11:40:36;;;;;;;4.25;2.62;;;;;;;17.72;53.05;93232.44;1851226;77;21072;-78
2021/06/06 11:43:32;;;;;;;4.25;2.75;;;;;;;17.72;51.11;93231.67;1820346;77;21293;-77
2021/06/06 11:46:17;;;;;;;;;;;;;;;17.67;51.54;93226.11;1838175;76;21002;-79
2021/06/06 11:49:03;;;;;;;4.70;2.70;;;;;;;17.66;53.20;93223.81;1848638;76;20197;-79
2021/06/06 11:51:39;;;;;;;3.40;3.03;;;;;;;17.66;52.69;93222.45;1843913;76;22698;-78
2021/06/06 11:54:27;;;;;;;4.33;2.70;;;;;;;17.67;52.62;93226.11;1818188;77;21257;-79
2021/06/06 11:56:55;;;;;;;6.53;2.85;;;;;;;17.69;53.04;93228.44;1802363;76;21426;-78
2021/06/06 11:59:33;;;;;;;4.15;2.80;;;;;;;17.68;53.12;93230.42;1865715;76;21067;-80
2021/06/06 12:02:10;;;;;;;2.90;2.70;;;;;;;17.66;50.89;93223.81;1806287;78;21088;-78
2021/06/06 12:04:41;;;;;;;2.60;2.40;;;;;;;17.62;51.65;93223.17;1803325;79;21676;-80
2021/06/06 12:07:30;;;;;;;7.30;3.47;;;;;;;17.60;53.01;93222.26;1803356;79;21052;-79
2021/06/06 12:09:58;;;;;;;3.40;3.10;;;;;;;17.64;54.10;93211.11;1803615;79;21074;-81
2021/06/06 12:12:36;;;;;;;8.03;4.25;;;;;;;17.75;54.42;93224.50;1804959;79;21049;-82
2021/06/06 12:15:26;;;;;;;11.48;5.95;;;;;;;17.83;54.43;93222.48;1808603;79;21081;-79
2021/06/06 12:18:05;;;;;;;4.12;3.77;;;;;;;17.94;53.79;93222.88;1813534;78;21101;-78
2021/06/06 12:20:35;;;;;;;3.17;2.92;;;;;;;18.08;54.80;93213.33;1823787;76;21006;-79
2021/06/06 12:23:09;;;;;;;3.62;3.20;;;;;;;18.23;54.04;93211.44;1867278;76;21501;-79
2021/06/06 12:25:36;;;;;;;3.72;3.42;;;;;;;18.27;52.45;93210.70;1843094;77;20998;-78